^^
Datos históricos de la estación: Murcia-Puente Tocinos
Diario Informe para Marzo 10, 2019 Unidades:  Ambas    Ingés   Métrico
Diario Semanal Mensual Anual
  Máxima: Mínima: Promedio:
Temperatura: 62.2 °F /  16.8 °C 54.7 °F /  12.6 °C 58.3 °F /  14.6 °C
Punto de rocio: 48.7 °F /  9.3 °C 29.8 °F /  -1.2 °C 38.1 °F /  3.4 °C
Humedad: 78.1% 30% 49%
Velocidad viento: 22.3mph /  35.9km/h - 11.8mph /  19km/h
Racha viento: 43mph /  69.2km/h - -
Viento- - OSO
Presión: 29.9 in /  1013.7 hPa 29.8 in /  1010.7 hPa -
Precipitación: 0.01 in /  0.3 mm    
 
 
Tabla de datos para Marzo 10, 2019
Hora Temperatura Punto de rocio Presión Viento Velocidad viento Racha viento Humedad Intensidad lluvia(por hora) Nubes
00:04 55.2 °F /  12.9 °C 48.6 °F /  9.2 °C 29.9in /  1013.6hPa SE 2.4mph /  3.8km/h 5mph /  8km/h 78.1% 0in /  0.0mm
00:09 55.2 °F /  12.9 °C 48.4 °F /  9.1 °C 29.9in /  1013.6hPa SSE 2.4mph /  3.9km/h 5mph /  8km/h 77.9% 0in /  0.0mm
00:14 55.4 °F /  13 °C 48.4 °F /  9.1 °C 29.9in /  1013.4hPa SSE 2.4mph /  3.8km/h 5mph /  8km/h 77.3% 0in /  0.0mm
00:19 55.6 °F /  13.1 °C 48.6 °F /  9.2 °C 29.9in /  1013.4hPa SSE 2.4mph /  3.9km/h 5.2mph /  8.4km/h 77.2% 0in /  0.0mm
00:24 55.6 °F /  13.1 °C 48.2 °F /  9 °C 29.9in /  1013.4hPa SSE 2.8mph /  4.5km/h 5.8mph /  9.3km/h 76.3% 0in /  0.0mm
00:29 55.8 °F /  13.2 °C 48.4 °F /  9.1 °C 29.9in /  1013.3hPa SSE 2.9mph /  4.7km/h 6mph /  9.7km/h 76.1% 0in /  0.0mm
00:34 55.8 °F /  13.2 °C 48.7 °F /  9.3 °C 29.9in /  1013.3hPa SE 3.8mph /  6.1km/h 6mph /  9.7km/h 76.9% 0in /  0.0mm
00:39 55.8 °F /  13.2 °C 48.7 °F /  9.3 °C 29.9in /  1013.3hPa SE 4mph /  6.5km/h 6.9mph /  11.1km/h 76.9% 0in /  0.0mm
00:44 55.6 °F /  13.1 °C 48.2 °F /  9 °C 29.9in /  1013.1hPa SSE 3.7mph /  5.9km/h 7mph /  11.3km/h 76% 0in /  0.0mm
00:49 55.6 °F /  13.1 °C 48 °F /  8.9 °C 29.9in /  1013.1hPa SSE 3.6mph /  5.8km/h 6mph /  9.7km/h 76% 0in /  0.0mm
00:54 55.6 °F /  13.1 °C 48 °F /  8.9 °C 29.9in /  1013.1hPa SSE 3mph /  4.9km/h 5mph /  8km/h 76% 0in /  0.0mm
00:59 55.6 °F /  13.1 °C 48 °F /  8.9 °C 29.9in /  1013.1hPa SSE 2.9mph /  4.7km/h 3.6mph /  5.8km/h 76% 0in /  0.0mm
01:04 55.6 °F /  13.1 °C 48 °F /  8.9 °C 29.9in /  1013.1hPa SSE 1.9mph /  3.1km/h 4.7mph /  7.6km/h 75.6% 0in /  0.0mm
01:09 55.6 °F /  13.1 °C 47.8 °F /  8.8 °C 29.9in /  1013.1hPa Sur 1.8mph /  2.9km/h 5mph /  8km/h 75% 0in /  0.0mm
01:14 55.6 °F /  13.1 °C 47.7 °F /  8.7 °C 29.9in /  1012.9hPa SSE 2.7mph /  4.4km/h 5mph /  8km/h 74.5% 0in /  0.0mm
01:19 55.8 °F /  13.2 °C 47.7 °F /  8.7 °C 29.9in /  1012.9hPa SSE 2.9mph /  4.7km/h 5mph /  8km/h 74% 0in /  0.0mm
01:24 55.8 °F /  13.2 °C 47.7 °F /  8.7 °C 29.9in /  1012.9hPa SSE 2.2mph /  3.5km/h 4.6mph /  7.4km/h 74.1% 0in /  0.0mm
01:29 55.8 °F /  13.2 °C 48 °F /  8.9 °C 29.9in /  1012.8hPa Sur 2mph /  3.2km/h 5mph /  8km/h 75% 0in /  0.0mm
01:34 55.9 °F /  13.3 °C 47.8 °F /  8.8 °C 29.9in /  1012.8hPa SSO 2mph /  3.2km/h 5mph /  8km/h 74.5% 0in /  0.0mm
01:39 55.9 °F /  13.3 °C 47.8 °F /  8.8 °C 29.9in /  1012.8hPa Sur 2mph /  3.2km/h 5.2mph /  8.4km/h 74% 0in /  0.0mm
01:44 56.1 °F /  13.4 °C 47.8 °F /  8.8 °C 29.9in /  1012.7hPa SSE 2.3mph /  3.7km/h 5.8mph /  9.3km/h 74% 0in /  0.0mm
01:49 56.1 °F /  13.4 °C 48.2 °F /  9 °C 29.9in /  1012.7hPa SSE 2.4mph /  3.9km/h 6.9mph /  11.1km/h 74.9% 0in /  0.0mm
01:54 56.1 °F /  13.4 °C 48.2 °F /  9 °C 29.9in /  1012.7hPa SSE 3.7mph /  6km/h 7mph /  11.3km/h 75% 0in /  0.0mm
01:59 55.9 °F /  13.3 °C 48.2 °F /  9 °C 29.9in /  1012.6hPa SSE 4mph /  6.5km/h 6mph /  9.7km/h 75% 0in /  0.0mm
02:04 55.9 °F /  13.3 °C 48 °F /  8.9 °C 29.9in /  1012.6hPa SE 3.7mph /  5.9km/h 6mph /  9.7km/h 75% 0in /  0.0mm
02:09 55.9 °F /  13.3 °C 48 °F /  8.9 °C 29.9in /  1012.6hPa SE 3.6mph /  5.8km/h 6mph /  9.7km/h 75% 0in /  0.0mm
02:14 55.9 °F /  13.3 °C 48 °F /  8.9 °C 29.9in /  1012.6hPa SE 3mph /  4.9km/h 5.2mph /  8.4km/h 74.9% 0in /  0.0mm
02:19 55.8 °F /  13.2 °C 47.7 °F /  8.7 °C 29.9in /  1012.6hPa SE 2.9mph /  4.7km/h 5mph /  8km/h 74% 0in /  0.0mm
02:24 55.9 °F /  13.3 °C 48 °F /  8.9 °C 29.9in /  1012.6hPa SE 2.9mph /  4.7km/h 5.8mph /  9.3km/h 74.8% 0in /  0.0mm
02:29 55.9 °F /  13.3 °C 48 °F /  8.9 °C 29.9in /  1012.5hPa ESE 2.9mph /  4.7km/h 6mph /  9.7km/h 75% 0in /  0.0mm
02:34 55.9 °F /  13.3 °C 48.2 °F /  9 °C 29.9in /  1012.6hPa ESE 2.9mph /  4.7km/h 5.2mph /  8.4km/h 75.1% 0in /  0.0mm
02:39 55.9 °F /  13.3 °C 48.2 °F /  9 °C 29.9in /  1012.6hPa SE 2.9mph /  4.7km/h 6.9mph /  11.1km/h 75.4% 0in /  0.0mm
02:44 55.8 °F /  13.2 °C 48 °F /  8.9 °C 29.9in /  1012.6hPa SE 4mph /  6.5km/h 7.4mph /  11.9km/h 75.2% 0in /  0.0mm
02:49 55.8 °F /  13.2 °C 47.7 °F /  8.7 °C 29.9in /  1012.6hPa SE 4.3mph /  6.9km/h 7mph /  11.3km/h 74.4% 0in /  0.0mm
02:54 55.8 °F /  13.2 °C 47.7 °F /  8.7 °C 29.9in /  1012.6hPa SE 4.3mph /  6.9km/h 7mph /  11.3km/h 74% 0in /  0.0mm
02:59 55.8 °F /  13.2 °C 47.7 °F /  8.7 °C 29.9in /  1012.2hPa SSE 4.3mph /  6.9km/h 7.4mph /  11.9km/h 74% 0in /  0.0mm
03:04 55.8 °F /  13.2 °C 47.7 °F /  8.7 °C 29.9in /  1012.2hPa SSE 4.3mph /  6.9km/h 7mph /  11.3km/h 74.2% 0in /  0.0mm
03:09 55.8 °F /  13.2 °C 47.7 °F /  8.7 °C 29.9in /  1012.2hPa Sur 4.3mph /  6.9km/h 6mph /  9.7km/h 74.1% 0in /  0.0mm
03:14 55.8 °F /  13.2 °C 47.7 °F /  8.7 °C 29.9in /  1012.1hPa SSE 4.3mph /  6.9km/h 7.6mph /  12.2km/h 74% 0in /  0.0mm
03:19 55.8 °F /  13.2 °C 47.7 °F /  8.7 °C 29.9in /  1012.1hPa SSE 4.3mph /  6.9km/h 8.1mph /  13km/h 74% 0in /  0.0mm
03:24 55.6 °F /  13.1 °C 47.5 °F /  8.6 °C 29.9in /  1012.1hPa SSE 5.2mph /  8.4km/h 9.7mph /  15.6km/h 74% 0in /  0.0mm
03:29 55.6 °F /  13.1 °C 47.7 °F /  8.7 °C 29.9in /  1011.7hPa Sur 5.4mph /  8.7km/h 10mph /  16.1km/h 74.9% 0in /  0.0mm
03:34 55.8 °F /  13.2 °C 47.3 °F /  8.5 °C 29.9in /  1011.7hPa Sur 5.8mph /  9.4km/h 9.2mph /  14.8km/h 73.6% 0in /  0.0mm
03:39 55.9 °F /  13.3 °C 47.3 °F /  8.5 °C 29.9in /  1011.7hPa SSE 5.9mph /  9.5km/h 9.2mph /  14.8km/h 72.9% 0in /  0.0mm
03:44 55.9 °F /  13.3 °C 47.5 °F /  8.6 °C 29.9in /  1011.5hPa Sur 6.2mph /  9.9km/h 9.2mph /  14.8km/h 73% 0in /  0.0mm
03:49 55.8 °F /  13.2 °C 47.3 °F /  8.5 °C 29.9in /  1011.5hPa SE 6.2mph /  10km/h 9mph /  14.5km/h 73% 0in /  0.0mm
03:54 55.8 °F /  13.2 °C 47.5 °F /  8.6 °C 29.9in /  1011.6hPa NNE 4.7mph /  7.5km/h 8.5mph /  13.7km/h 73.6% 0in /  0.0mm
03:59 55.4 °F /  13 °C 47.5 °F /  8.6 °C 29.9in /  1011.6hPa NNE 4.3mph /  6.9km/h 9mph /  14.5km/h 74.9% 0in /  0.0mm
04:04 55 °F /  12.8 °C 47.7 °F /  8.7 °C 29.9in /  1011.6hPa NO 4.3mph /  6.9km/h 7mph /  11.3km/h 76% 0in /  0.0mm
04:09 55 °F /  12.8 °C 47.5 °F /  8.6 °C 29.9in /  1011.7hPa NO 4.3mph /  6.9km/h 5.2mph /  8.4km/h 76% 0in /  0.0mm
04:14 54.9 °F /  12.7 °C 47.5 °F /  8.6 °C 29.9in /  1011.7hPa NO 2.7mph /  4.4km/h 5mph /  8km/h 76% 0in /  0.0mm
04:19 54.9 °F /  12.7 °C 47.8 °F /  8.8 °C 29.9in /  1011.7hPa Oeste 2.4mph /  3.9km/h 5.9mph /  9.5km/h 77% 0in /  0.0mm
04:24 54.9 °F /  12.7 °C 47.8 °F /  8.8 °C 29.9in /  1011.7hPa ONO 2.4mph /  3.9km/h 6mph /  9.7km/h 77.3% 0in /  0.0mm
04:29 54.9 °F /  12.7 °C 48 °F /  8.9 °C 29.9in /  1011.6hPa SSO 2.4mph /  3.9km/h 7.6mph /  12.2km/h 77.7% 0in /  0.0mm
04:34 54.9 °F /  12.7 °C 48 °F /  8.9 °C 29.9in /  1011.6hPa SO 3mph /  4.8km/h 8.1mph /  13km/h 77.5% 0in /  0.0mm
04:39 54.9 °F /  12.7 °C 48 °F /  8.9 °C 29.9in /  1011.6hPa SSO 3.1mph /  5km/h 8.1mph /  13km/h 78% 0in /  0.0mm
04:44 54.9 °F /  12.7 °C 47.8 °F /  8.8 °C 29.9in /  1011.2hPa SSO 4.1mph /  6.6km/h 7.4mph /  11.9km/h 77.3% 0in /  0.0mm
04:49 55 °F /  12.8 °C 47.5 °F /  8.6 °C 29.9in /  1011.2hPa SSO 4.3mph /  6.9km/h 9.2mph /  14.8km/h 75.3% 0in /  0.0mm
04:54 55.6 °F /  13.1 °C 47.8 °F /  8.8 °C 29.9in /  1011.4hPa SSO 5.2mph /  8.4km/h 9mph /  14.5km/h 75% 0in /  0.0mm
04:59 55.8 °F /  13.2 °C 47.7 °F /  8.7 °C 29.9in /  1011.4hPa SSO 5.4mph /  8.7km/h 8.1mph /  13km/h 74.3% 0in /  0.0mm
05:04 55.9 °F /  13.3 °C 47.5 °F /  8.6 °C 29.9in /  1011.4hPa SSO 5.2mph /  8.4km/h 8mph /  12.9km/h 73.3% 0in /  0.0mm
05:09 55.9 °F /  13.3 °C 47.3 °F /  8.5 °C 29.9in /  1011.4hPa SSO 5.2mph /  8.4km/h 9.2mph /  14.8km/h 72.5% 0in /  0.0mm
05:14 56.1 °F /  13.4 °C 46.9 °F /  8.3 °C 29.9in /  1011.4hPa Sur 4.5mph /  7.2km/h 9mph /  14.5km/h 71% 0in /  0.0mm
05:19 56.1 °F /  13.4 °C 47.3 °F /  8.5 °C 29.9in /  1011.4hPa SSO 4.3mph /  6.9km/h 7mph /  11.3km/h 72% 0in /  0.0mm
05:24 55.9 °F /  13.3 °C 47.1 °F /  8.4 °C 29.9in /  1011.4hPa SO 4.3mph /  6.9km/h 11.2mph /  18km/h 72.2% 0in /  0.0mm
05:29 56.1 °F /  13.4 °C 46.4 °F /  8 °C 29.9in /  1011.4hPa Oeste 4.3mph /  6.9km/h 16.1mph /  25.9km/h 69.9% 0in /  0.0mm
05:34 58.1 °F /  14.5 °C 44.2 °F /  6.8 °C 29.9in /  1011.4hPa ONO 5.8mph /  9.4km/h 32.4mph /  52.1km/h 60.1% 0.01in /  0.3mm
05:39 59.9 °F /  15.5 °C 43.3 °F /  6.3 °C 29.9in /  1011.4hPa Oeste 6.2mph /  10km/h 32mph /  51.5km/h 54.3% 0.01in /  0.3mm
05:44 60.3 °F /  15.7 °C 43 °F /  6.1 °C 29.9in /  1011.1hPa Oeste 13.6mph /  21.9km/h 33.5mph /  53.9km/h 52.8% 0.01in /  0.3mm
05:49 60.4 °F /  15.8 °C 43.2 °F /  6.2 °C 29.9in /  1011.1hPa Oeste 15.2mph /  24.5km/h 33mph /  53.1km/h 53% 0.01in /  0.3mm
05:54 60.3 °F /  15.7 °C 43.2 °F /  6.2 °C 29.9in /  1011.4hPa Oeste 13.4mph /  21.6km/h 22mph /  35.4km/h 53% 0.01in /  0.3mm
05:59 60.1 °F /  15.6 °C 43.2 °F /  6.2 °C 29.9in /  1011.4hPa ONO 13mph /  20.9km/h 22mph /  35.4km/h 53.5% 0.01in /  0.3mm
06:04 59.9 °F /  15.5 °C 43.2 °F /  6.2 °C 29.9in /  1011.4hPa ONO 13mph /  20.9km/h 23.5mph /  37.8km/h 54% 0.01in /  0.3mm
06:09 59.9 °F /  15.5 °C 43 °F /  6.1 °C 29.9in /  1011.6hPa Oeste 13mph /  20.9km/h 26.5mph /  42.6km/h 53.4% 0.01in /  0.3mm
06:14 60.1 °F /  15.6 °C 43 °F /  6.1 °C 29.9in /  1011.6hPa ONO 14.4mph /  23.1km/h 26mph /  41.8km/h 53% 0.01in /  0.3mm
06:19 59.7 °F /  15.4 °C 42.6 °F /  5.9 °C 29.9in /  1011.8hPa ONO 14.7mph /  23.7km/h 23mph /  37km/h 53% 0.01in /  0.3mm
06:24 59.5 °F /  15.3 °C 42.6 °F /  5.9 °C 29.9in /  1011.8hPa ONO 13.3mph /  21.4km/h 18.4mph /  29.6km/h 53.2% 0.01in /  0.3mm
06:29 59.4 °F /  15.2 °C 42.3 °F /  5.7 °C 29.9in /  1011.8hPa ONO 13mph /  20.9km/h 21.9mph /  35.2km/h 52.9% 0.01in /  0.3mm
06:34 59.4 °F /  15.2 °C 41.7 °F /  5.4 °C 29.9in /  1011.8hPa ONO 11.7mph /  18.8km/h 22mph /  35.4km/h 52% 0.01in /  0.3mm
06:39 59.2 °F /  15.1 °C 41.5 °F /  5.3 °C 29.9in /  1011.8hPa ONO 11.4mph /  18.4km/h 20.8mph /  33.5km/h 52% 0in /  0.0mm
06:44 59 °F /  15 °C 41.4 °F /  5.2 °C 29.9in /  1011.7hPa ONO 12.2mph /  19.6km/h 21.3mph /  34.3km/h 52% 0in /  0.0mm
06:49 58.8 °F /  14.9 °C 41.2 °F /  5.1 °C 29.9in /  1011.7hPa ONO 12.3mph /  19.8km/h 24.2mph /  38.9km/h 52% 0in /  0.0mm
06:54 58.6 °F /  14.8 °C 41 °F /  5 °C 29.9in /  1011.7hPa ONO 12.9mph /  20.7km/h 24mph /  38.6km/h 51.6% 0in /  0.0mm
06:59 58.6 °F /  14.8 °C 40.5 °F /  4.7 °C 29.9in /  1011.7hPa ONO 13mph /  20.9km/h 23mph /  37km/h 51% 0in /  0.0mm
07:04 58.5 °F /  14.7 °C 40.3 °F /  4.6 °C 29.9in /  1011.7hPa ONO 12.4mph /  19.9km/h 21.9mph /  35.2km/h 50.9% 0in /  0.0mm
07:09 58.5 °F /  14.7 °C 39.9 °F /  4.4 °C 29.9in /  1011.7hPa ONO 12.3mph /  19.8km/h 22mph /  35.4km/h 50% 0in /  0.0mm
07:14 58.5 °F /  14.7 °C 39.9 °F /  4.4 °C 29.9in /  1011.6hPa ONO 11.6mph /  18.6km/h 22mph /  35.4km/h 50% 0in /  0.0mm
07:19 58.3 °F /  14.6 °C 39.6 °F /  4.2 °C 29.9in /  1011.6hPa Oeste 11.4mph /  18.4km/h 19mph /  30.6km/h 49.6% 0in /  0.0mm
07:24 58.3 °F /  14.6 °C 38.8 °F /  3.8 °C 29.9in /  1011.6hPa Oeste 9.6mph /  15.5km/h 23.5mph /  37.8km/h 48.4% 0in /  0.0mm
07:29 58.1 °F /  14.5 °C 38.5 °F /  3.6 °C 29.9in /  1011.6hPa ONO 9.2mph /  14.8km/h 23mph /  37km/h 48% 0in /  0.0mm
07:34 57.9 °F /  14.4 °C 38.3 °F /  3.5 °C 29.9in /  1011.6hPa ONO 8.8mph /  14.1km/h 15mph /  24.1km/h 48% 0in /  0.0mm
07:39 57.7 °F /  14.3 °C 37.8 °F /  3.2 °C 29.9in /  1011.9hPa ONO 8.7mph /  14km/h 17.5mph /  28.2km/h 47.3% 0in /  0.0mm
07:44 57.7 °F /  14.3 °C 37.8 °F /  3.2 °C 29.9in /  1011.9hPa Oeste 8.2mph /  13.2km/h 20.1mph /  32.3km/h 47.4% 0in /  0.0mm
07:49 57.7 °F /  14.3 °C 38.1 °F /  3.4 °C 29.9in /  1011.9hPa Oeste 8.1mph /  13km/h 21mph /  33.8km/h 48% 0in /  0.0mm
07:54 57.6 °F /  14.2 °C 38.3 °F /  3.5 °C 29.9in /  1012.0hPa ONO 9mph /  14.5km/h 17.5mph /  28.2km/h 48.6% 0in /  0.0mm
07:59 57.6 °F /  14.2 °C 38.5 °F /  3.6 °C 29.9in /  1012.0hPa ONO 9.2mph /  14.8km/h 23mph /  37km/h 49% 0in /  0.0mm
08:04 57.6 °F /  14.2 °C 38.1 °F /  3.4 °C 29.9in /  1012.0hPa ONO 11.5mph /  18.5km/h 26.5mph /  42.6km/h 48.4% 0in /  0.0mm
08:09 57.6 °F /  14.2 °C 37.9 °F /  3.3 °C 29.9in /  1012.2hPa ONO 11.8mph /  19km/h 27.9mph /  44.9km/h 47.9% 0in /  0.0mm
08:14 57.6 °F /  14.2 °C 37.9 °F /  3.3 °C 29.9in /  1012.2hPa ONO 14.7mph /  23.6km/h 28mph /  45.1km/h 48% 0in /  0.0mm
08:19 57.4 °F /  14.1 °C 37.8 °F /  3.2 °C 29.9in /  1012.2hPa ONO 15.2mph /  24.5km/h 28.8mph /  46.3km/h 48% 0in /  0.0mm
08:24 57 °F /  13.9 °C 37.6 °F /  3.1 °C 29.9in /  1012.3hPa ONO 14.8mph /  23.8km/h 32.4mph /  52.1km/h 48% 0in /  0.0mm
08:29 56.8 °F /  13.8 °C 37.4 °F /  3 °C 29.9in /  1012.3hPa ONO 14.7mph /  23.7km/h 32.4mph /  52.1km/h 48% 0in /  0.0mm
08:34 56.7 °F /  13.7 °C 37.6 °F /  3.1 °C 29.9in /  1012.3hPa Oeste 15.5mph /  24.9km/h 32mph /  51.5km/h 48.7% 0in /  0.0mm
08:39 56.5 °F /  13.6 °C 37.8 °F /  3.2 °C 29.9in /  1012.6hPa Oeste 15.6mph /  25.1km/h 29.7mph /  47.8km/h 49.5% 0in /  0.0mm
08:44 56.1 °F /  13.4 °C 37.9 °F /  3.3 °C 29.9in /  1012.6hPa ONO 15.3mph /  24.6km/h 30mph /  48.3km/h 50.5% 0in /  0.0mm
08:49 55.9 °F /  13.3 °C 38.1 °F /  3.4 °C 29.9in /  1012.6hPa ONO 15.2mph /  24.5km/h 32.7mph /  52.6km/h 51% 0in /  0.0mm
08:54 55.9 °F /  13.3 °C 38.1 °F /  3.4 °C 29.9in /  1012.6hPa ONO 16.5mph /  26.6km/h 33mph /  53.1km/h 51.1% 0in /  0.0mm
08:59 55.9 °F /  13.3 °C 38.3 °F /  3.5 °C 29.9in /  1012.5hPa ONO 16.8mph /  27km/h 28.8mph /  46.3km/h 51.5% 0in /  0.0mm
09:04 55.9 °F /  13.3 °C 38.3 °F /  3.5 °C 29.9in /  1012.5hPa ONO 16.4mph /  26.4km/h 29mph /  46.7km/h 51.3% 0in /  0.0mm
09:09 55.9 °F /  13.3 °C 38.1 °F /  3.4 °C 29.9in /  1012.6hPa ONO 16.3mph /  26.2km/h 28mph /  45.1km/h 51% 0in /  0.0mm
09:14 56.1 °F /  13.4 °C 38.1 °F /  3.4 °C 29.9in /  1012.6hPa ONO 14.8mph /  23.8km/h 28mph /  45.1km/h 51% 0in /  0.0mm
09:19 56.1 °F /  13.4 °C 38.3 °F /  3.5 °C 29.9in /  1012.6hPa ONO 14.5mph /  23.3km/h 27.6mph /  44.4km/h 51% 0in /  0.0mm
09:24 56.5 °F /  13.6 °C 38.1 °F /  3.4 °C 29.9in /  1013.1hPa ONO 15.4mph /  24.8km/h 28mph /  45.1km/h 50.2% 0in /  0.0mm
09:29 56.7 °F /  13.7 °C 38.3 °F /  3.5 °C 29.9in /  1013.1hPa ONO 15.6mph /  25.1km/h 26mph /  41.8km/h 50% 0in /  0.0mm
09:34 57 °F /  13.9 °C 38.3 °F /  3.5 °C 29.9in /  1013.1hPa Oeste 13.9mph /  22.3km/h 27.6mph /  44.4km/h 49.6% 0in /  0.0mm
09:39 57.4 °F /  14.1 °C 38.1 °F /  3.4 °C 29.9in /  1013.2hPa ONO 13.5mph /  21.7km/h 28mph /  45.1km/h 48.7% 0in /  0.0mm
09:44 57.6 °F /  14.2 °C 37.9 °F /  3.3 °C 29.9in /  1013.2hPa ONO 13.9mph /  22.4km/h 28mph /  45.1km/h 47.9% 0in /  0.0mm
09:49 57.7 °F /  14.3 °C 37.2 °F /  2.9 °C 29.9in /  1013.2hPa ONO 14mph /  22.5km/h 26.5mph /  42.6km/h 46.3% 0in /  0.0mm
09:54 57.9 °F /  14.4 °C 37 °F /  2.8 °C 29.9in /  1013.5hPa ONO 15mph /  24.1km/h 41.5mph /  66.8km/h 45.7% 0in /  0.0mm
09:59 57.9 °F /  14.4 °C 36.7 °F /  2.6 °C 29.9in /  1013.5hPa ONO 15.2mph /  24.5km/h 42mph /  67.6km/h 45% 0in /  0.0mm
10:04 57.9 °F /  14.4 °C 36.7 °F /  2.6 °C 29.9in /  1013.5hPa ONO 20.9mph /  33.7km/h 41mph /  66km/h 45% 0in /  0.0mm
10:09 57.9 °F /  14.4 °C 36.1 °F /  2.3 °C 29.9in /  1013.5hPa ONO 21.9mph /  35.2km/h 35.1mph /  56.5km/h 43.8% 0in /  0.0mm
10:14 57.9 °F /  14.4 °C 36 °F /  2.2 °C 29.9in /  1013.2hPa ONO 17.8mph /  28.7km/h 35mph /  56.3km/h 43.8% 0in /  0.0mm
10:19 58.1 °F /  14.5 °C 36 °F /  2.2 °C 29.9in /  1013.2hPa ONO 17mph /  27.4km/h 34.8mph /  56km/h 43.5% 0in /  0.0mm
10:24 57.9 °F /  14.4 °C 36.1 °F /  2.3 °C 29.9in /  1013.5hPa ONO 18.7mph /  30.1km/h 35mph /  56.3km/h 44% 0in /  0.0mm
10:29 57.9 °F /  14.4 °C 36.1 °F /  2.3 °C 29.9in /  1013.5hPa Oeste 19mph /  30.6km/h 35mph /  56.3km/h 44% 0in /  0.0mm
10:34 58.3 °F /  14.6 °C 36.3 °F /  2.4 °C 29.9in /  1013.5hPa ONO 19.9mph /  32km/h 33.7mph /  54.2km/h 43.8% 0in /  0.0mm
10:39 58.5 °F /  14.7 °C 36 °F /  2.2 °C 29.9in /  1013.5hPa ONO 20.1mph /  32.4km/h 34mph /  54.7km/h 42.9% 0in /  0.0mm
10:44 58.5 °F /  14.7 °C 35.6 °F /  2 °C 29.9in /  1013.5hPa ONO 17.4mph /  28km/h 32.4mph /  52.1km/h 42.4% 0in /  0.0mm
10:49 58.5 °F /  14.7 °C 35.8 °F /  2.1 °C 29.9in /  1013.5hPa ONO 16.8mph /  27km/h 32mph /  51.5km/h 42.6% 0in /  0.0mm
10:54 58.5 °F /  14.7 °C 35.6 °F /  2 °C 29.9in /  1013.5hPa ONO 15.1mph /  24.3km/h 26mph /  41.8km/h 42.3% 0in /  0.0mm
10:59 58.6 °F /  14.8 °C 35.4 °F /  1.9 °C 29.9in /  1013.5hPa ONO 14.7mph /  23.7km/h 24.2mph /  38.9km/h 42% 0in /  0.0mm
11:04 58.6 °F /  14.8 °C 35.1 °F /  1.7 °C 29.9in /  1013.5hPa ONO 14.1mph /  22.7km/h 31.3mph /  50.4km/h 41.2% 0in /  0.0mm
11:09 58.6 °F /  14.8 °C 34.9 °F /  1.6 °C 29.9in /  1013.5hPa ONO 14mph /  22.5km/h 31mph /  49.9km/h 41% 0in /  0.0mm
11:14 58.6 °F /  14.8 °C 35.1 °F /  1.7 °C 29.9in /  1013.5hPa ONO 16.5mph /  26.5km/h 29.9mph /  48.1km/h 41% 0in /  0.0mm
11:19 58.6 °F /  14.8 °C 34.5 °F /  1.4 °C 29.9in /  1013.5hPa ONO 17mph /  27.4km/h 31.1mph /  50.1km/h 40.2% 0in /  0.0mm
11:24 58.6 °F /  14.8 °C 34.7 °F /  1.5 °C 29.9in /  1013.5hPa ONO 17.4mph /  28km/h 31mph /  49.9km/h 40.3% 0in /  0.0mm
11:29 59 °F /  15 °C 34.7 °F /  1.5 °C 29.9in /  1013.3hPa Oeste 17.5mph /  28.2km/h 29.9mph /  48.1km/h 40% 0in /  0.0mm
11:34 59.2 °F /  15.1 °C 34.7 °F /  1.5 °C 29.9in /  1013.3hPa Oeste 15.9mph /  25.6km/h 34.5mph /  55.5km/h 39.8% 0in /  0.0mm
11:39 59.4 °F /  15.2 °C 34.3 °F /  1.3 °C 29.9in /  1013.3hPa ONO 15.6mph /  25.1km/h 35mph /  56.3km/h 38.8% 0in /  0.0mm
11:44 59.4 °F /  15.2 °C 33.3 °F /  0.7 °C 29.9in /  1013.2hPa ONO 17.1mph /  27.6km/h 31.7mph /  51km/h 37.3% 0in /  0.0mm
11:49 59.4 °F /  15.2 °C 33.3 °F /  0.7 °C 29.9in /  1013.2hPa Oeste 17.5mph /  28.2km/h 39.3mph /  63.2km/h 37.3% 0in /  0.0mm
11:54 59.2 °F /  15.1 °C 32.7 °F /  0.4 °C 29.9in /  1013.2hPa ONO 20.8mph /  33.5km/h 39mph /  62.8km/h 36.7% 0in /  0.0mm
11:59 59.4 °F /  15.2 °C 32.4 °F /  0.2 °C 29.9in /  1013.1hPa ONO 21.5mph /  34.6km/h 36mph /  57.9km/h 36% 0in /  0.0mm
12:04 59.5 °F /  15.3 °C 32.5 °F /  0.3 °C 29.9in /  1013.1hPa ONO 22.2mph /  35.7km/h 35.7mph /  57.5km/h 36% 0in /  0.0mm
12:09 59.5 °F /  15.3 °C 32.7 °F /  0.4 °C 29.9in /  1013.1hPa ONO 22.3mph /  35.9km/h 36mph /  57.9km/h 36.1% 0in /  0.0mm
12:14 59.9 °F /  15.5 °C 31.5 °F /  -0.3 °C 29.9in /  1012.9hPa ONO 20.1mph /  32.4km/h 36.8mph /  59.2km/h 34.1% 0in /  0.0mm
12:19 59.9 °F /  15.5 °C 32 °F /  0 °C 29.9in /  1012.9hPa ONO 19.7mph /  31.7km/h 37mph /  59.5km/h 34.7% 0in /  0.0mm
12:24 60.3 °F /  15.7 °C 32.4 °F /  0.2 °C 29.9in /  1013.0hPa ONO 20.3mph /  32.6km/h 36.8mph /  59.2km/h 35% 0in /  0.0mm
12:29 60.1 °F /  15.6 °C 32.7 °F /  0.4 °C 29.9in /  1013.0hPa ONO 20.4mph /  32.8km/h 37mph /  59.5km/h 35.4% 0in /  0.0mm
12:34 60.3 °F /  15.7 °C 32.9 °F /  0.5 °C 29.9in /  1013.0hPa Oeste 18.5mph /  29.7km/h 31.3mph /  50.4km/h 35.4% 0in /  0.0mm
12:39 60.6 °F /  15.9 °C 32.5 °F /  0.3 °C 29.9in /  1013.0hPa ONO 18.1mph /  29.1km/h 31.1mph /  50.1km/h 34.7% 0in /  0.0mm
12:44 61 °F /  16.1 °C 31.8 °F /  -0.1 °C 29.9in /  1012.7hPa ONO 15.2mph /  24.4km/h 28mph /  45.1km/h 33.2% 0in /  0.0mm
12:49 60.6 °F /  15.9 °C 31.5 °F /  -0.3 °C 29.9in /  1012.7hPa ONO 14.5mph /  23.3km/h 34.5mph /  55.5km/h 33.1% 0in /  0.0mm
12:54 60.8 °F /  16 °C 32.2 °F /  0.1 °C 29.9in /  1012.7hPa ONO 18.3mph /  29.4km/h 35mph /  56.3km/h 33.9% 0in /  0.0mm
12:59 61.2 °F /  16.2 °C 32.4 °F /  0.2 °C 29.9in /  1012.2hPa ONO 19mph /  30.6km/h 29.9mph /  48.1km/h 33.9% 0in /  0.0mm
13:04 61.2 °F /  16.2 °C 31.8 °F /  -0.1 °C 29.9in /  1012.2hPa ONO 16.3mph /  26.3km/h 30mph /  48.3km/h 33% 0in /  0.0mm
13:09 61.3 °F /  16.3 °C 31.5 °F /  -0.3 °C 29.9in /  1012.2hPa ONO 15.9mph /  25.6km/h 36mph /  57.9km/h 32.4% 0in /  0.0mm
13:14 61.2 °F /  16.2 °C 30.4 °F /  -0.9 °C 29.9in /  1011.8hPa ONO 18.1mph /  29.1km/h 36mph /  57.9km/h 31.1% 0in /  0.0mm
13:19 61.2 °F /  16.2 °C 29.8 °F /  -1.2 °C 29.9in /  1011.8hPa ONO 18.5mph /  29.8km/h 36.8mph /  59.2km/h 30.3% 0in /  0.0mm
13:24 61.2 °F /  16.2 °C 30.2 °F /  -1 °C 29.9in /  1012.0hPa ONO 19.8mph /  31.9km/h 37mph /  59.5km/h 30.8% 0in /  0.0mm
13:29 61.5 °F /  16.4 °C 30.4 °F /  -0.9 °C 29.9in /  1012.0hPa ONO 20.1mph /  32.4km/h 31.3mph /  50.4km/h 30.7% 0in /  0.0mm
13:34 61.5 °F /  16.4 °C 29.8 °F /  -1.2 °C 29.9in /  1012.0hPa ONO 16.7mph /  26.8km/h 34.5mph /  55.5km/h 30% 0in /  0.0mm
13:39 61.7 °F /  16.5 °C 29.8 °F /  -1.2 °C 29.9in /  1012.0hPa Oeste 15.9mph /  25.6km/h 35mph /  56.3km/h 30% 0in /  0.0mm
13:44 61.7 °F /  16.5 °C 30 °F /  -1.1 °C 29.9in /  1011.5hPa Oeste 16.8mph /  27km/h 29mph /  46.7km/h 30.1% 0in /  0.0mm
13:49 61.7 °F /  16.5 °C 30.2 °F /  -1 °C 29.9in /  1011.5hPa ONO 17mph /  27.4km/h 34.5mph /  55.5km/h 30.3% 0in /  0.0mm
13:54 61.7 °F /  16.5 °C 30 °F /  -1.1 °C 29.9in /  1011.5hPa ONO 17.9mph /  28.8km/h 38mph /  61.2km/h 30% 0in /  0.0mm
13:59 62.1 °F /  16.7 °C 30.2 °F /  -1 °C 29.9in /  1011.2hPa ONO 18.1mph /  29.1km/h 38mph /  61.2km/h 30.1% 0in /  0.0mm
14:04 62.1 °F /  16.7 °C 30.2 °F /  -1 °C 29.9in /  1011.2hPa Oeste 18.1mph /  29.1km/h 35.7mph /  57.5km/h 30% 0in /  0.0mm
14:09 62.1 °F /  16.7 °C 30.4 °F /  -0.9 °C 29.9in /  1011.2hPa ONO 18.1mph /  29.1km/h 36mph /  57.9km/h 30.2% 0in /  0.0mm
14:14 62.1 °F /  16.7 °C 30.6 °F /  -0.8 °C 29.9in /  1011.1hPa ONO 18.5mph /  29.7km/h 30mph /  48.3km/h 30.4% 0in /  0.0mm
14:19 62.2 °F /  16.8 °C 30.7 °F /  -0.7 °C 29.9in /  1011.1hPa ONO 18.5mph /  29.8km/h 32.7mph /  52.6km/h 30.4% 0in /  0.0mm
14:24 62.2 °F /  16.8 °C 30.4 °F /  -0.9 °C 29.9in /  1011.1hPa ONO 17.3mph /  27.8km/h 33mph /  53.1km/h 30% 0in /  0.0mm
14:29 62.2 °F /  16.8 °C 30.4 °F /  -0.9 °C 29.9in /  1011.1hPa ONO 17mph /  27.4km/h 32mph /  51.5km/h 30% 0in /  0.0mm
14:34 62.1 °F /  16.7 °C 30.2 °F /  -1 °C 29.9in /  1011.1hPa ONO 18.8mph /  30.3km/h 39.1mph /  62.9km/h 30% 0in /  0.0mm
14:39 62.1 °F /  16.7 °C 30.2 °F /  -1 °C 29.9in /  1011.3hPa ONO 19.2mph /  30.9km/h 39mph /  62.8km/h 30% 0in /  0.0mm
14:44 61.9 °F /  16.6 °C 30.7 °F /  -0.7 °C 29.9in /  1011.3hPa ONO 20.2mph /  32.5km/h 35.7mph /  57.5km/h 30.9% 0in /  0.0mm
14:49 62.1 °F /  16.7 °C 31.6 °F /  -0.2 °C 29.9in /  1011.3hPa ONO 20.4mph /  32.8km/h 36mph /  57.9km/h 31.7% 0in /  0.0mm
14:54 62.1 °F /  16.7 °C 31.8 °F /  -0.1 °C 29.9in /  1011.3hPa Oeste 20.4mph /  32.8km/h 38.4mph /  61.8km/h 32.1% 0in /  0.0mm
14:59 62.1 °F /  16.7 °C 31.3 °F /  -0.4 °C 29.9in /  1010.9hPa ONO 20.4mph /  32.8km/h 38mph /  61.2km/h 31.3% 0in /  0.0mm
15:04 62.1 °F /  16.7 °C 31.3 °F /  -0.4 °C 29.9in /  1010.9hPa ONO 21.4mph /  34.4km/h 42.9mph /  69km/h 31.3% 0in /  0.0mm
15:09 62.2 °F /  16.8 °C 31.3 °F /  -0.4 °C 29.9in /  1010.9hPa ONO 21.5mph /  34.6km/h 43mph /  69.2km/h 31.2% 0in /  0.0mm
15:14 62.1 °F /  16.7 °C 31.1 °F /  -0.5 °C 29.8in /  1010.7hPa ONO 20.9mph /  33.7km/h 40.5mph /  65.2km/h 31% 0in /  0.0mm
15:19 62.1 °F /  16.7 °C 31.1 °F /  -0.5 °C 29.8in /  1010.7hPa Oeste 20.8mph /  33.5km/h 40mph /  64.4km/h 31% 0in /  0.0mm
15:24 62.2 °F /  16.8 °C 31.6 °F /  -0.2 °C 29.9in /  1010.9hPa ONO 22.1mph /  35.5km/h 36.2mph /  58.3km/h 31.7% 0in /  0.0mm
15:29 62.1 °F /  16.7 °C 31.8 °F /  -0.1 °C 29.9in /  1010.9hPa ONO 22.3mph /  35.9km/h 37mph /  59.5km/h 32% 0in /  0.0mm
15:34 62.1 °F /  16.7 °C 31.8 °F /  -0.1 °C 29.9in /  1011.0hPa ONO 20.7mph /  33.3km/h 35mph /  56.3km/h 32% 0in /  0.0mm
15:39 62.1 °F /  16.7 °C 31.8 °F /  -0.1 °C 29.9in /  1011.0hPa ONO 20.4mph /  32.8km/h 38mph /  61.2km/h 32% 0in /  0.0mm
15:44 62.1 °F /  16.7 °C 32 °F /  0 °C 29.9in /  1011.0hPa ONO 20.1mph /  32.4km/h 39.3mph /  63.2km/h 32.5% 0in /  0.0mm
15:49 61.9 °F /  16.6 °C 32.4 °F /  0.2 °C 29.9in /  1011.0hPa ONO 20.1mph /  32.4km/h 39mph /  62.8km/h 33% 0in /  0.0mm
15:54 61.9 °F /  16.6 °C 32.4 °F /  0.2 °C 29.9in /  1011.0hPa ONO 20.4mph /  32.8km/h 35.1mph /  56.5km/h 33% 0in /  0.0mm
15:59 61.9 °F /  16.6 °C 33.1 °F /  0.6 °C 29.9in /  1011.0hPa ONO 20.4mph /  32.8km/h 35mph /  56.3km/h 34% 0in /  0.0mm
16:04 61.9 °F /  16.6 °C 33.3 °F /  0.7 °C 29.9in /  1011.0hPa ONO 18.8mph /  30.2km/h 35.7mph /  57.5km/h 34% 0in /  0.0mm
16:09 61.9 °F /  16.6 °C 33.4 °F /  0.8 °C 29.9in /  1011.3hPa ONO 18.5mph /  29.8km/h 36mph /  57.9km/h 34.5% 0in /  0.0mm
16:14 61.7 °F /  16.5 °C 33.8 °F /  1 °C 29.9in /  1011.3hPa Oeste 17.6mph /  28.4km/h 27.6mph /  44.4km/h 35% 0in /  0.0mm
16:19 61.5 °F /  16.4 °C 33.6 °F /  0.9 °C 29.9in /  1011.3hPa ONO 17.5mph /  28.2km/h 29.9mph /  48.1km/h 35% 0in /  0.0mm
16:24 61.5 °F /  16.4 °C 33.6 °F /  0.9 °C 29.9in /  1011.6hPa ONO 17.5mph /  28.2km/h 34.5mph /  55.5km/h 35% 0in /  0.0mm
16:29 61.3 °F /  16.3 °C 33.4 °F /  0.8 °C 29.9in /  1011.6hPa ONO 17.5mph /  28.2km/h 35mph /  56.3km/h 35.1% 0in /  0.0mm
16:34 61.3 °F /  16.3 °C 33.8 °F /  1 °C 29.9in /  1011.6hPa ONO 17.8mph /  28.6km/h 31mph /  49.9km/h 35.4% 0in /  0.0mm
16:39 61.3 °F /  16.3 °C 33.6 °F /  0.9 °C 29.9in /  1011.7hPa Oeste 17.8mph /  28.6km/h 30mph /  48.3km/h 35.4% 0in /  0.0mm
16:44 61.3 °F /  16.3 °C 33.4 °F /  0.8 °C 29.9in /  1011.7hPa ONO 16mph /  25.7km/h 29.1mph /  46.8km/h 35% 0in /  0.0mm
16:49 61.2 °F /  16.2 °C 33.3 °F /  0.7 °C 29.9in /  1011.7hPa Oeste 15.6mph /  25.1km/h 29mph /  46.7km/h 35% 0in /  0.0mm
16:54 61 °F /  16.1 °C 33.1 °F /  0.6 °C 29.9in /  1011.7hPa ONO 14.8mph /  23.9km/h 33.4mph /  53.8km/h 35% 0in /  0.0mm
16:59 61 °F /  16.1 °C 33.1 °F /  0.6 °C 29.9in /  1011.5hPa Oeste 14.7mph /  23.7km/h 33mph /  53.1km/h 35.1% 0in /  0.0mm
17:04 61 °F /  16.1 °C 33.3 °F /  0.7 °C 29.9in /  1011.5hPa ONO 14.5mph /  23.4km/h 27.6mph /  44.4km/h 35.2% 0in /  0.0mm
17:09 61 °F /  16.1 °C 33.1 °F /  0.6 °C 29.9in /  1011.5hPa Oeste 14.5mph /  23.3km/h 28mph /  45.1km/h 35% 0in /  0.0mm
17:14 61 °F /  16.1 °C 33.1 °F /  0.6 °C 29.9in /  1011.4hPa Oeste 13.7mph /  22km/h 23.5mph /  37.8km/h 35% 0in /  0.0mm
17:19 61.2 °F /  16.2 °C 33.3 °F /  0.7 °C 29.9in /  1011.8hPa Oeste 13.5mph /  21.7km/h 23mph /  37km/h 35% 0in /  0.0mm
17:24 61.2 °F /  16.2 °C 33.3 °F /  0.7 °C 29.9in /  1011.8hPa Oeste 10.6mph /  17.1km/h 17.3mph /  27.8km/h 35% 0in /  0.0mm
17:29 61.2 °F /  16.2 °C 33.3 °F /  0.7 °C 29.9in /  1011.8hPa Oeste 10mph /  16.1km/h 20.7mph /  33.3km/h 35% 0in /  0.0mm
17:34 61.2 °F /  16.2 °C 33.3 °F /  0.7 °C 29.9in /  1011.8hPa Oeste 8.4mph /  13.6km/h 21mph /  33.8km/h 35% 0in /  0.0mm
17:39 61 °F /  16.1 °C 33.1 °F /  0.6 °C 29.9in /  1011.8hPa Oeste 8.1mph /  13km/h 21.9mph /  35.2km/h 35% 0in /  0.0mm
17:44 60.6 °F /  15.9 °C 32.9 °F /  0.5 °C 29.9in /  1011.8hPa Oeste 9.6mph /  15.5km/h 22mph /  35.4km/h 35% 0in /  0.0mm
17:49 60.6 °F /  15.9 °C 32.7 °F /  0.4 °C 29.9in /  1011.8hPa Oeste 10mph /  16.1km/h 23.5mph /  37.8km/h 35% 0in /  0.0mm
17:54 60.4 °F /  15.8 °C 33.4 °F /  0.8 °C 29.9in /  1011.9hPa Oeste 11.1mph /  17.9km/h 23mph /  37km/h 35.9% 0in /  0.0mm
17:59 60.4 °F /  15.8 °C 33.3 °F /  0.7 °C 29.9in /  1011.9hPa Oeste 11.4mph /  18.4km/h 22.3mph /  35.9km/h 36% 0in /  0.0mm
18:04 60.3 °F /  15.7 °C 33.3 °F /  0.7 °C 29.9in /  1011.9hPa ONO 11.2mph /  18.1km/h 22mph /  35.4km/h 36% 0in /  0.0mm
18:09 60.1 °F /  15.6 °C 33.1 °F /  0.6 °C 29.9in /  1012.0hPa Oeste 11.2mph /  18km/h 29.1mph /  46.8km/h 36% 0in /  0.0mm
18:14 60.1 °F /  15.6 °C 33.1 °F /  0.6 °C 29.9in /  1012.0hPa Oeste 13.5mph /  21.7km/h 29mph /  46.7km/h 36% 0in /  0.0mm
18:19 59.9 °F /  15.5 °C 32.9 °F /  0.5 °C 29.9in /  1012.0hPa ONO 14mph /  22.5km/h 27.9mph /  44.9km/h 36% 0in /  0.0mm
18:24 59.9 °F /  15.5 °C 32.9 °F /  0.5 °C 29.9in /  1012.2hPa Oeste 14.4mph /  23.2km/h 28mph /  45.1km/h 36.1% 0in /  0.0mm
18:29 59.9 °F /  15.5 °C 33.4 °F /  0.8 °C 29.9in /  1012.2hPa Oeste 14.5mph /  23.3km/h 22mph /  35.4km/h 37% 0in /  0.0mm
18:34 59.7 °F /  15.4 °C 33.4 °F /  0.8 °C 29.9in /  1012.4hPa Oeste 9.7mph /  15.6km/h 16.1mph /  25.9km/h 37% 0in /  0.0mm
18:39 59.5 °F /  15.3 °C 33.6 °F /  0.9 °C 29.9in /  1012.4hPa Oeste 8.7mph /  14km/h 16mph /  25.7km/h 37.5% 0in /  0.0mm
18:44 59.4 °F /  15.2 °C 33.8 °F /  1 °C 29.9in /  1012.4hPa Oeste 7.2mph /  11.6km/h 14.7mph /  23.7km/h 38% 0in /  0.0mm
18:49 59.4 °F /  15.2 °C 33.6 °F /  0.9 °C 29.9in /  1012.4hPa Oeste 6.9mph /  11.1km/h 17.8mph /  28.6km/h 38% 0in /  0.0mm
18:54 59.4 °F /  15.2 °C 33.8 °F /  1 °C 29.9in /  1012.5hPa ONO 7.9mph /  12.7km/h 18.4mph /  29.6km/h 38.1% 0in /  0.0mm
18:59 59.2 °F /  15.1 °C 34.2 °F /  1.2 °C 29.9in /  1012.5hPa Oeste 8.1mph /  13km/h 19.2mph /  30.9km/h 39% 0in /  0.0mm
19:04 59.2 °F /  15.1 °C 34.2 °F /  1.2 °C 29.9in /  1012.5hPa Oeste 9.1mph /  14.6km/h 24.2mph /  38.9km/h 39% 0in /  0.0mm
19:09 59.2 °F /  15.1 °C 34.2 °F /  1.2 °C 29.9in /  1012.5hPa Oeste 9.2mph /  14.8km/h 24.2mph /  38.9km/h 39% 0in /  0.0mm
19:14 59 °F /  15 °C 34.2 °F /  1.2 °C 29.9in /  1012.5hPa Oeste 9.2mph /  14.8km/h 18mph /  29km/h 39% 0in /  0.0mm
19:19 58.8 °F /  14.9 °C 34.2 °F /  1.2 °C 29.9in /  1012.5hPa Oeste 9.2mph /  14.8km/h 16.3mph /  26.2km/h 39.3% 0in /  0.0mm
19:24 58.8 °F /  14.9 °C 34.2 °F /  1.2 °C 29.9in /  1012.5hPa Oeste 7.9mph /  12.7km/h 19.6mph /  31.5km/h 39.5% 0in /  0.0mm
19:29 58.8 °F /  14.9 °C 34 °F /  1.1 °C 29.9in /  1012.5hPa Oeste 7.6mph /  12.2km/h 20mph /  32.2km/h 39.2% 0in /  0.0mm
19:34 58.8 °F /  14.9 °C 34.5 °F /  1.4 °C 29.9in /  1012.5hPa Oeste 9.6mph /  15.4km/h 19mph /  30.6km/h 39.9% 0in /  0.0mm
19:39 58.8 °F /  14.9 °C 34.5 °F /  1.4 °C 29.9in /  1012.5hPa Oeste 10mph /  16.1km/h 24.2mph /  38.9km/h 40% 0in /  0.0mm
19:44 58.8 °F /  14.9 °C 34.5 °F /  1.4 °C 29.9in /  1012.5hPa Oeste 11.5mph /  18.5km/h 24mph /  38.6km/h 40% 0in /  0.0mm
19:49 58.8 °F /  14.9 °C 34.5 °F /  1.4 °C 29.9in /  1012.5hPa Oeste 11.8mph /  19km/h 25.3mph /  40.7km/h 40% 0in /  0.0mm
19:54 58.6 °F /  14.8 °C 34.5 °F /  1.4 °C 29.9in /  1012.9hPa Oeste 11.3mph /  18.2km/h 25mph /  40.2km/h 40.2% 0in /  0.0mm
19:59 58.6 °F /  14.8 °C 34.7 °F /  1.5 °C 29.9in /  1012.9hPa Oeste 11.2mph /  18km/h 22mph /  35.4km/h 40.4% 0in /  0.0mm
20:04 58.6 °F /  14.8 °C 35.1 °F /  1.7 °C 29.9in /  1012.9hPa Oeste 11.7mph /  18.9km/h 22mph /  35.4km/h 41% 0in /  0.0mm
20:09 58.6 °F /  14.8 °C 34.9 °F /  1.6 °C 29.9in /  1013.2hPa Oeste 11.8mph /  19km/h 21mph /  33.8km/h 41% 0in /  0.0mm
20:14 58.5 °F /  14.7 °C 34.9 °F /  1.6 °C 29.9in /  1013.2hPa Oeste 11.3mph /  18.2km/h 21mph /  33.8km/h 41% 0in /  0.0mm
20:19 58.5 °F /  14.7 °C 35.1 °F /  1.7 °C 29.9in /  1013.2hPa Oeste 11.2mph /  18km/h 21mph /  33.8km/h 41.4% 0in /  0.0mm
20:24 58.3 °F /  14.6 °C 35.2 °F /  1.8 °C 29.9in /  1013.2hPa ONO 9.9mph /  16km/h 26.5mph /  42.6km/h 42% 0in /  0.0mm
20:29 58.3 °F /  14.6 °C 35.2 °F /  1.8 °C 29.9in /  1012.9hPa ONO 9.7mph /  15.6km/h 26mph /  41.8km/h 42% 0in /  0.0mm
20:34 57.9 °F /  14.4 °C 35.1 °F /  1.7 °C 29.9in /  1013.1hPa ONO 10.5mph /  16.9km/h 20mph /  32.2km/h 42.1% 0in /  0.0mm
20:39 57.7 °F /  14.3 °C 35.4 °F /  1.9 °C 29.9in /  1013.1hPa ONO 10.7mph /  17.2km/h 23mph /  37km/h 43% 0in /  0.0mm
20:44 57.7 °F /  14.3 °C 35.4 °F /  1.9 °C 29.9in /  1013.1hPa Oeste 10.1mph /  16.3km/h 23mph /  37km/h 43% 0in /  0.0mm
20:49 57.6 °F /  14.2 °C 35.6 °F /  2 °C 29.9in /  1013.1hPa ONO 10mph /  16.1km/h 19.6mph /  31.5km/h 43.7% 0in /  0.0mm
20:54 57.6 °F /  14.2 °C 35.8 °F /  2.1 °C 29.9in /  1013.1hPa Oeste 10.2mph /  16.4km/h 24.2mph /  38.9km/h 44% 0in /  0.0mm
20:59 57.6 °F /  14.2 °C 35.8 °F /  2.1 °C 29.9in /  1013.0hPa ONO 10.2mph /  16.4km/h 25.6mph /  41.2km/h 44% 0in /  0.0mm
21:04 57.6 °F /  14.2 °C 35.8 °F /  2.1 °C 29.9in /  1013.0hPa Oeste 13.5mph /  21.8km/h 26mph /  41.8km/h 44% 0in /  0.0mm
21:09 57.4 °F /  14.1 °C 35.8 °F /  2.1 °C 29.9in /  1013.1hPa ONO 14mph /  22.5km/h 21.9mph /  35.2km/h 44.4% 0in /  0.0mm
21:14 57.4 °F /  14.1 °C 36.1 °F /  2.3 °C 29.9in /  1013.1hPa ONO 12.2mph /  19.6km/h 24.2mph /  38.9km/h 45% 0in /  0.0mm
21:19 57.4 °F /  14.1 °C 36.1 °F /  2.3 °C 29.9in /  1013.1hPa ONO 11.8mph /  19km/h 24mph /  38.6km/h 45% 0in /  0.0mm
21:24 57 °F /  13.9 °C 36.1 °F /  2.3 °C 29.9in /  1013.2hPa Oeste 13.2mph /  21.3km/h 21mph /  33.8km/h 45.3% 0in /  0.0mm
21:29 57 °F /  13.9 °C 36.3 °F /  2.4 °C 29.9in /  1013.2hPa ONO 13.5mph /  21.7km/h 23.5mph /  37.8km/h 46% 0in /  0.0mm
21:34 56.8 °F /  13.8 °C 36.3 °F /  2.4 °C 29.9in /  1013.2hPa ONO 11.6mph /  18.7km/h 23mph /  37km/h 46% 0in /  0.0mm
21:39 56.8 °F /  13.8 °C 36.3 °F /  2.4 °C 29.9in /  1013.2hPa ONO 11.2mph /  18km/h 26.8mph /  43.1km/h 46% 0in /  0.0mm
21:44 56.7 °F /  13.7 °C 36.1 °F /  2.3 °C 29.9in /  1013.0hPa ONO 14mph /  22.5km/h 27mph /  43.5km/h 46% 0in /  0.0mm
21:49 56.7 °F /  13.7 °C 36.3 °F /  2.4 °C 29.9in /  1013.0hPa ONO 14.5mph /  23.3km/h 24.2mph /  38.9km/h 46.4% 0in /  0.0mm
21:54 56.5 °F /  13.6 °C 36.5 °F /  2.5 °C 29.9in /  1013.0hPa ONO 14.7mph /  23.6km/h 24.6mph /  39.6km/h 47% 0in /  0.0mm
21:59 56.3 °F /  13.5 °C 36.3 °F /  2.4 °C 29.9in /  1012.8hPa ONO 14.7mph /  23.7km/h 25mph /  40.2km/h 47% 0in /  0.0mm
22:04 56.1 °F /  13.4 °C 36.1 °F /  2.3 °C 29.9in /  1012.8hPa ONO 14.1mph /  22.7km/h 26.1mph /  42km/h 47% 0in /  0.0mm
22:09 56.1 °F /  13.4 °C 36.1 °F /  2.3 °C 29.9in /  1013.1hPa ONO 14mph /  22.5km/h 26.5mph /  42.6km/h 47% 0in /  0.0mm
22:14 56.1 °F /  13.4 °C 36.1 °F /  2.3 °C 29.9in /  1013.1hPa ONO 14.6mph /  23.5km/h 25.3mph /  40.7km/h 47% 0in /  0.0mm
22:19 55.9 °F /  13.3 °C 36 °F /  2.2 °C 29.9in /  1013.1hPa Oeste 14.7mph /  23.7km/h 25.3mph /  40.7km/h 47% 0in /  0.0mm
22:24 55.9 °F /  13.3 °C 36.1 °F /  2.3 °C 29.9in /  1013.1hPa Oeste 12.9mph /  20.7km/h 25mph /  40.2km/h 47.2% 0in /  0.0mm
22:29 55.9 °F /  13.3 °C 36 °F /  2.2 °C 29.9in /  1013.1hPa Oeste 12.5mph /  20.1km/h 23mph /  37km/h 47% 0in /  0.0mm
22:34 55.9 °F /  13.3 °C 36 °F /  2.2 °C 29.9in /  1013.1hPa Oeste 12.5mph /  20.1km/h 23mph /  37km/h 47% 0in /  0.0mm
22:39 55.9 °F /  13.3 °C 36 °F /  2.2 °C 29.9in /  1013.1hPa Oeste 12.5mph /  20.1km/h 25.3mph /  40.7km/h 47% 0in /  0.0mm
22:44 55.8 °F /  13.2 °C 36 °F /  2.2 °C 29.9in /  1013.1hPa Oeste 13.4mph /  21.5km/h 25mph /  40.2km/h 47% 0in /  0.0mm
22:49 55.8 °F /  13.2 °C 36.1 °F /  2.3 °C 29.9in /  1013.1hPa Oeste 13.5mph /  21.7km/h 20mph /  32.2km/h 47.6% 0in /  0.0mm
22:54 55.6 °F /  13.1 °C 36.5 °F /  2.5 °C 29.9in /  1013.1hPa ONO 11.2mph /  18km/h 18.4mph /  29.6km/h 48.7% 0in /  0.0mm
22:59 55.6 °F /  13.1 °C 36.7 °F /  2.6 °C 29.9in /  1013.1hPa Oeste 10.7mph /  17.2km/h 18mph /  29km/h 49% 0in /  0.0mm
23:04 55.6 °F /  13.1 °C 36.7 °F /  2.6 °C 29.9in /  1013.1hPa Oeste 9.4mph /  15.1km/h 19mph /  30.6km/h 49% 0in /  0.0mm
23:09 55.6 °F /  13.1 °C 36.1 °F /  2.3 °C 29.9in /  1013.2hPa Oeste 9.2mph /  14.8km/h 23.5mph /  37.8km/h 48% 0in /  0.0mm
23:14 55.6 °F /  13.1 °C 36.1 °F /  2.3 °C 29.9in /  1013.2hPa Oeste 11.4mph /  18.3km/h 23mph /  37km/h 48.2% 0in /  0.0mm
23:19 55.2 °F /  12.9 °C 36.5 °F /  2.5 °C 29.9in /  1013.2hPa Oeste 11.8mph /  19km/h 19mph /  30.6km/h 49% 0in /  0.0mm
23:24 55.2 °F /  12.9 °C 36.3 °F /  2.4 °C 29.9in /  1013.2hPa Oeste 10.1mph /  16.2km/h 24.2mph /  38.9km/h 49% 0in /  0.0mm
23:29 55.2 °F /  12.9 °C 36.3 °F /  2.4 °C 29.9in /  1013.2hPa OSO 9.7mph /  15.6km/h 24mph /  38.6km/h 49% 0in /  0.0mm
23:34 55 °F /  12.8 °C 36.1 °F /  2.3 °C 29.9in /  1013.2hPa ONO 8.9mph /  14.3km/h 17.5mph /  28.2km/h 49% 0in /  0.0mm
23:39 55 °F /  12.8 °C 36.1 °F /  2.3 °C 29.9in /  1013.2hPa Oeste 8.7mph /  14km/h 17mph /  27.4km/h 49% 0in /  0.0mm
23:44 55 °F /  12.8 °C 36.1 °F /  2.3 °C 29.9in /  1013.2hPa Oeste 6.4mph /  10.3km/h 12mph /  19.3km/h 49% 0in /  0.0mm
23:49 54.9 °F /  12.7 °C 36.5 °F /  2.5 °C 29.9in /  1013.2hPa NE 5.9mph /  9.5km/h 10.4mph /  16.7km/h 49.9% 0in /  0.0mm
23:54 54.9 °F /  12.7 °C 36.5 °F /  2.5 °C 29.9in /  1013.7hPa SE 4.3mph /  7km/h 10mph /  16.1km/h 50% 0in /  0.0mm
23:59 54.7 °F /  12.6 °C 36.3 °F /  2.4 °C 29.9in /  1013.7hPa ESE 4mph /  6.5km/h 8.1mph /  13km/h 50% 0in /  0.0mm
Murcia-Puente Tocinos, Espa?a
Compliments of Weather Underground - 3.25 mb

La estación de MeteoMurcia.com, publica sus datos en los siguientes proyectos:

Weather Underground PWS IMURCIAP2 Meteoclimatic www.awekas.at

W3Counter
Web Analytics